Time,TemperatureF,DewpointF,PressureIn,WindDirection,WindDirectionDegrees,WindSpeedMPH,WindSpeedGustMPH,Humidity,HourlyPrecipIn,Conditions,Clouds,dailyrainin,SoftwareType,DateUTC
2018-04-22 00:02:00,59.6,54.0,30.17,ESE,123,0.0,2.0,83,0.00,,,0.00,weatherlink.com 1.10,2018-04-22 07:02:00,
2018-04-22 00:17:00,59.1,54.0,30.17,East,97,1.0,1.0,84,0.00,,,0.00,weatherlink.com 1.10,2018-04-22 07:17:00,
2018-04-22 00:32:00,58.7,54.0,30.17,East,98,0.0,1.0,85,0.00,,,0.00,weatherlink.com 1.10,2018-04-22 07:32:00,
2018-04-22 00:47:00,58.4,54.0,30.16,ESE,123,0.0,0.0,85,0.00,,,0.00,weatherlink.com 1.10,2018-04-22 07:47:00,
2018-04-22 01:02:00,58.1,54.0,30.16,ESE,123,0.0,0.0,86,0.00,,,0.00,weatherlink.com 1.10,2018-04-22 08:02:00,
2018-04-22 01:17:00,57.7,54.0,30.16,ESE,123,0.0,0.0,86,0.00,,,0.00,weatherlink.com 1.10,2018-04-22 08:17:00,
2018-04-22 01:32:00,57.4,54.0,30.16,ESE,123,0.0,0.0,87,0.00,,,0.00,weatherlink.com 1.10,2018-04-22 08:32:00,
2018-04-22 01:47:00,56.9,53.0,30.15,ESE,122,0.0,0.0,87,0.00,,,0.00,weatherlink.com 1.10,2018-04-22 08:47:00,
2018-04-22 02:02:00,56.5,53.0,30.15,ESE,122,0.0,0.0,87,0.00,,,0.00,weatherlink.com 1.10,2018-04-22 09:02:00,
2018-04-22 02:18:00,56.0,52.0,30.14,ESE,122,0.0,0.0,87,0.00,,,0.00,weatherlink.com 1.10,2018-04-22 09:18:00,
2018-04-22 02:33:00,55.6,52.0,30.14,ESE,122,0.0,0.0,87,0.00,,,0.00,weatherlink.com 1.10,2018-04-22 09:33:00,
2018-04-22 02:48:00,55.2,51.0,30.14,ESE,122,0.0,0.0,87,0.00,,,0.00,weatherlink.com 1.10,2018-04-22 09:48:00,
2018-04-22 03:03:00,54.6,51.0,30.14,ESE,122,0.0,0.0,88,0.00,,,0.00,weatherlink.com 1.10,2018-04-22 10:03:00,
2018-04-22 03:18:00,54.1,51.0,30.13,ESE,122,0.0,0.0,88,0.00,,,0.00,weatherlink.com 1.10,2018-04-22 10:18:00,
2018-04-22 03:33:00,54.0,51.0,30.13,ESE,122,0.0,0.0,88,0.00,,,0.00,weatherlink.com 1.10,2018-04-22 10:33:00,
2018-04-22 03:48:00,53.6,50.0,30.13,ESE,122,0.0,0.0,88,0.00,,,0.00,weatherlink.com 1.10,2018-04-22 10:48:00,
2018-04-22 04:03:00,53.6,51.0,30.13,ESE,122,0.0,0.0,89,0.00,,,0.00,weatherlink.com 1.10,2018-04-22 11:03:00,
2018-04-22 04:18:00,53.7,51.0,30.13,ESE,122,0.0,0.0,89,0.00,,,0.00,weatherlink.com 1.10,2018-04-22 11:18:00,
2018-04-22 04:33:00,53.5,50.0,30.13,NE,38,0.0,0.0,89,0.00,,,0.00,weatherlink.com 1.10,2018-04-22 11:33:00,
2018-04-22 04:48:00,53.1,50.0,30.13,NE,38,0.0,0.0,89,0.00,,,0.00,weatherlink.com 1.10,2018-04-22 11:48:00,
2018-04-22 05:03:00,52.8,50.0,30.13,NE,38,0.0,0.0,89,0.00,,,0.00,weatherlink.com 1.10,2018-04-22 12:03:00,
2018-04-22 05:18:00,52.6,50.0,30.13,NE,38,0.0,0.0,89,0.00,,,0.00,weatherlink.com 1.10,2018-04-22 12:18:00,
2018-04-22 05:33:00,52.6,50.0,30.12,NE,38,0.0,0.0,90,0.00,,,0.00,weatherlink.com 1.10,2018-04-22 12:33:00,
2018-04-22 05:48:00,52.5,50.0,30.13,NE,38,0.0,0.0,90,0.00,,,0.00,weatherlink.com 1.10,2018-04-22 12:48:00,
2018-04-22 06:18:00,51.9,49.0,30.13,NE,38,0.0,0.0,90,0.00,,,0.00,weatherlink.com 1.10,2018-04-22 13:18:00,
2018-04-22 06:33:00,51.8,49.0,30.13,NE,38,0.0,0.0,90,0.00,,,0.00,weatherlink.com 1.10,2018-04-22 13:33:00,
2018-04-22 06:48:00,52.1,49.0,30.13,NE,38,0.0,0.0,90,0.00,,,0.00,weatherlink.com 1.10,2018-04-22 13:48:00,
2018-04-22 07:03:00,52.9,50.0,30.14,NE,38,0.0,0.0,91,0.00,,,0.00,weatherlink.com 1.10,2018-04-22 14:03:00,
2018-04-22 07:18:00,53.8,51.0,30.14,NE,38,0.0,0.0,91,0.00,,,0.00,weatherlink.com 1.10,2018-04-22 14:18:00,
2018-04-22 07:33:00,56.6,54.0,30.14,NE,38,0.0,0.0,92,0.00,,,0.00,weatherlink.com 1.10,2018-04-22 14:33:00,
2018-04-22 07:48:00,59.5,57.0,30.15,ENE,59,0.0,0.0,92,0.00,,,0.00,weatherlink.com 1.10,2018-04-22 14:48:00,
2018-04-22 08:03:00,60.4,58.0,30.15,ENE,65,0.0,0.0,90,0.00,,,0.00,weatherlink.com 1.10,2018-04-22 15:03:00,
2018-04-22 08:18:00,62.0,59.0,30.14,ENE,63,0.0,0.0,89,0.00,,,0.00,weatherlink.com 1.10,2018-04-22 15:18:00,
2018-04-22 08:33:00,63.4,59.0,30.14,ENE,62,0.0,0.0,85,0.00,,,0.00,weatherlink.com 1.10,2018-04-22 15:33:00,
2018-04-22 08:48:00,65.6,59.0,30.14,ESE,120,0.0,3.0,79,0.00,,,0.00,weatherlink.com 1.10,2018-04-22 15:48:00,
2018-04-22 09:03:00,67.0,58.0,30.14,WSW,247,4.0,5.0,73,0.00,,,0.00,weatherlink.com 1.10,2018-04-22 16:03:00,
2018-04-22 09:18:00,68.3,58.0,30.14,West,271,0.0,4.0,69,0.00,,,0.00,weatherlink.com 1.10,2018-04-22 16:18:00,
2018-04-22 09:34:00,69.7,57.0,30.14,SE,142,1.0,5.0,65,0.00,,,0.00,weatherlink.com 1.10,2018-04-22 16:34:00,
2018-04-22 09:49:00,71.0,58.0,30.14,West,263,2.0,3.0,63,0.00,,,0.00,weatherlink.com 1.10,2018-04-22 16:49:00,
2018-04-22 10:04:00,71.8,57.0,30.14,NW,314,0.0,4.0,61,0.00,,,0.00,weatherlink.com 1.10,2018-04-22 17:04:00,
2018-04-22 10:19:00,72.4,57.0,30.14,NNW,342,2.0,7.0,59,0.00,,,0.00,weatherlink.com 1.10,2018-04-22 17:19:00,
2018-04-22 10:34:00,71.9,57.0,30.14,NW,324,1.0,7.0,59,0.00,,,0.00,weatherlink.com 1.10,2018-04-22 17:34:00,
2018-04-22 10:49:00,72.4,57.0,30.14,SSW,207,4.0,8.0,58,0.00,,,0.00,weatherlink.com 1.10,2018-04-22 17:49:00,
2018-04-22 11:04:00,72.4,56.0,30.14,NW,306,2.0,7.0,56,0.00,,,0.00,weatherlink.com 1.10,2018-04-22 18:04:00,
2018-04-22 11:19:00,72.8,56.0,30.13,SW,222,5.0,8.0,55,0.00,,,0.00,weatherlink.com 1.10,2018-04-22 18:19:00,
2018-04-22 11:34:00,73.5,56.0,30.13,SW,217,3.0,7.0,54,0.00,,,0.00,weatherlink.com 1.10,2018-04-22 18:34:00,
2018-04-22 11:49:00,74.0,56.0,30.12,West,267,7.0,8.0,53,0.00,,,0.00,weatherlink.com 1.10,2018-04-22 18:49:00,
2018-04-22 12:04:00,75.2,56.0,30.13,NNW,329,2.0,8.0,51,0.00,,,0.00,weatherlink.com 1.10,2018-04-22 19:04:00,
2018-04-22 12:19:00,75.4,55.0,30.13,SSE,168,6.0,9.0,49,0.00,,,0.00,weatherlink.com 1.10,2018-04-22 19:19:00,
2018-04-22 12:34:00,75.1,55.0,30.12,WSW,244,7.0,9.0,49,0.00,,,0.00,weatherlink.com 1.10,2018-04-22 19:34:00,
2018-04-22 12:49:00,74.9,55.0,30.12,SSE,156,5.0,9.0,51,0.00,,,0.00,weatherlink.com 1.10,2018-04-22 19:49:00,
2018-04-22 13:04:00,75.5,54.0,30.12,ESE,119,2.0,8.0,48,0.00,,,0.00,weatherlink.com 1.10,2018-04-22 20:04:00,
2018-04-22 13:19:00,76.3,54.0,30.11,ESE,103,3.0,11.0,46,0.00,,,0.00,weatherlink.com 1.10,2018-04-22 20:19:00,
2018-04-22 13:34:00,77.5,54.0,30.11,SSE,164,10.0,10.0,45,0.00,,,0.00,weatherlink.com 1.10,2018-04-22 20:34:00,
2018-04-22 13:49:00,77.5,54.0,30.11,SW,217,3.0,11.0,44,0.00,,,0.00,weatherlink.com 1.10,2018-04-22 20:49:00,
2018-04-22 14:04:00,77.7,54.0,30.11,SSW,200,1.0,10.0,44,0.00,,,0.00,weatherlink.com 1.10,2018-04-22 21:04:00,
2018-04-22 14:19:00,78.7,55.0,30.10,SE,126,3.0,9.0,44,0.00,,,0.00,weatherlink.com 1.10,2018-04-22 21:19:00,
2018-04-22 14:34:00,79.6,56.0,30.09,SSE,155,4.0,8.0,44,0.00,,,0.00,weatherlink.com 1.10,2018-04-22 21:34:00,
2018-04-22 14:49:00,80.1,55.0,30.09,SE,135,5.0,7.0,42,0.00,,,0.00,weatherlink.com 1.10,2018-04-22 21:49:00,
2018-04-22 15:04:00,80.5,55.0,30.09,East,83,5.0,8.0,42,0.00,,,0.00,weatherlink.com 1.10,2018-04-22 22:04:00,
2018-04-22 15:19:00,80.9,56.0,30.08,ESE,113,4.0,8.0,43,0.00,,,0.00,weatherlink.com 1.10,2018-04-22 22:19:00,
2018-04-22 15:34:00,82.1,57.0,30.08,SSE,167,0.0,6.0,43,0.00,,,0.00,weatherlink.com 1.10,2018-04-22 22:34:00,
2018-04-22 15:49:00,83.7,55.0,30.08,WSW,251,2.0,5.0,37,0.00,,,0.00,weatherlink.com 1.10,2018-04-22 22:49:00,
2018-04-22 16:05:00,83.2,54.0,30.08,SW,230,2.0,4.0,36,0.00,,,0.00,weatherlink.com 1.10,2018-04-22 23:05:00,
2018-04-22 16:20:00,82.6,54.0,30.08,WSW,240,1.0,3.0,37,0.00,,,0.00,weatherlink.com 1.10,2018-04-22 23:20:00,
2018-04-22 16:35:00,82.9,54.0,30.07,WSW,246,1.0,4.0,37,0.00,,,0.00,weatherlink.com 1.10,2018-04-22 23:35:00,
2018-04-22 16:50:00,83.1,53.0,30.07,SW,223,1.0,5.0,36,0.00,,,0.00,weatherlink.com 1.10,2018-04-22 23:50:00,
2018-04-22 17:05:00,82.4,54.0,30.07,WSW,242,1.0,4.0,37,0.00,,,0.00,weatherlink.com 1.10,2018-04-23 00:05:00,